createdAt,value
2024-05-09T00:00:40.723Z,97.10
2024-05-09T00:03:10.104Z,97.20
2024-05-09T00:05:40.066Z,97.40
2024-05-09T00:08:08.456Z,97.60
2024-05-09T00:10:37.971Z,97.60
2024-05-09T00:13:07.143Z,97.60
2024-05-09T00:15:35.047Z,97.70
2024-05-09T00:18:03.302Z,97.60
2024-05-09T00:20:37.700Z,97.60
2024-05-09T00:23:11.780Z,97.40
2024-05-09T00:25:40.152Z,97.50
2024-05-09T00:28:07.086Z,97.60
2024-05-09T00:30:36.466Z,97.70
2024-05-09T00:33:09.161Z,97.60
2024-05-09T00:35:37.743Z,97.70
2024-05-09T00:38:05.252Z,97.70
2024-05-09T00:40:40.972Z,97.90
2024-05-09T00:43:14.802Z,97.80
2024-05-09T00:45:42.576Z,97.80
2024-05-09T00:48:13.940Z,97.80
2024-05-09T00:50:44.889Z,97.90
2024-05-09T00:53:14.208Z,98.00
2024-05-09T00:55:41.810Z,97.90
2024-05-09T00:58:11.244Z,97.80
2024-05-09T01:00:40.493Z,97.60
2024-05-09T01:03:10.988Z,97.60
2024-05-09T01:05:40.249Z,97.70
2024-05-09T01:08:08.615Z,97.70
2024-05-09T01:10:36.806Z,97.70
2024-05-09T01:13:07.557Z,97.50
2024-05-09T01:15:35.685Z,97.60
2024-05-09T01:18:09.399Z,97.60
2024-05-09T01:20:41.865Z,97.70
2024-05-09T01:23:12.549Z,97.70
2024-05-09T01:25:40.623Z,97.60
2024-05-09T01:28:07.706Z,97.80
2024-05-09T01:30:37.088Z,98.10
2024-05-09T01:33:07.894Z,98.40
2024-05-09T01:35:36.781Z,99.10
2024-05-09T01:38:04.119Z,99.60
2024-05-09T01:40:38.429Z,99.80
2024-05-09T01:43:11.273Z,100.00
2024-05-09T01:45:39.975Z,100.00
2024-05-09T01:48:08.147Z,99.90
2024-05-09T01:50:39.645Z,99.80
2024-05-09T01:53:10.711Z,99.50
2024-05-09T01:55:37.880Z,99.40
2024-05-09T01:58:05.146Z,99.40
2024-05-09T02:00:38.886Z,99.60
2024-05-09T02:03:11.571Z,99.90
2024-05-09T02:05:41.588Z,100.00
2024-05-09T02:08:14.801Z,100.00
2024-05-09T02:10:41.829Z,99.80
2024-05-09T02:13:08.771Z,99.30
2024-05-09T02:15:36.106Z,99.10
2024-05-09T02:18:03.256Z,98.90
2024-05-09T02:20:35.937Z,98.70
2024-05-09T02:23:06.067Z,98.60
2024-05-09T02:25:33.649Z,98.70
2024-05-09T02:28:00.608Z,98.60
2024-05-09T02:30:37.929Z,98.60
2024-05-09T02:33:09.949Z,98.60
2024-05-09T02:35:38.774Z,98.60
2024-05-09T02:38:05.851Z,99.00
2024-05-09T02:40:37.035Z,99.50
2024-05-09T02:43:07.524Z,99.70
2024-05-09T02:45:34.677Z,100.00
2024-05-09T02:48:02.234Z,100.00
2024-05-09T02:50:36.759Z,100.00
2024-05-09T02:53:07.215Z,99.80
2024-05-09T02:55:34.717Z,99.50
2024-05-09T02:58:01.635Z,99.20
2024-05-09T03:00:36.895Z,98.80
2024-05-09T03:03:12.505Z,98.60
2024-05-09T03:05:42.596Z,98.70
2024-05-09T03:08:09.970Z,99.10
2024-05-09T03:10:38.710Z,99.00
2024-05-09T03:13:12.757Z,99.00
2024-05-09T03:15:40.951Z,98.70
2024-05-09T03:18:08.720Z,98.60
2024-05-09T03:20:36.843Z,98.40
2024-05-09T03:23:05.612Z,98.10
2024-05-09T03:25:33.188Z,98.00
2024-05-09T03:28:00.150Z,98.00
2024-05-09T03:30:38.655Z,98.10
2024-05-09T03:33:22.763Z,98.20
2024-05-09T03:35:50.000Z,98.20
2024-05-09T03:38:17.291Z,98.10
2024-05-09T03:40:46.467Z,98.50
2024-05-09T03:43:14.375Z,99.10
2024-05-09T03:45:42.754Z,99.20
2024-05-09T03:48:09.979Z,99.40
2024-05-09T03:50:37.705Z,100.00
2024-05-09T03:53:05.228Z,100.00
2024-05-09T03:55:32.270Z,100.00
2024-05-09T03:57:59.497Z,100.00
2024-05-09T04:00:35.081Z,100.00
2024-05-09T04:03:08.506Z,100.00
2024-05-09T04:05:39.580Z,100.00
2024-05-09T04:08:07.133Z,100.00
2024-05-09T04:10:35.173Z,100.00
2024-05-09T04:13:03.803Z,100.00
2024-05-09T04:15:32.476Z,100.00
2024-05-09T04:18:00.200Z,100.00
2024-05-09T04:20:36.531Z,100.00
2024-05-09T04:23:08.443Z,100.00
2024-05-09T04:25:36.989Z,100.00
2024-05-09T04:28:04.430Z,100.00
2024-05-09T04:30:37.865Z,100.00
2024-05-09T04:33:09.959Z,100.00
2024-05-09T04:35:39.161Z,100.00
2024-05-09T04:38:06.612Z,100.00
2024-05-09T04:40:36.268Z,100.00
2024-05-09T04:43:05.837Z,100.00
2024-05-09T04:45:33.139Z,100.00
2024-05-09T04:48:00.840Z,100.00
2024-05-09T04:50:35.981Z,100.00
2024-05-09T04:53:06.865Z,100.00
2024-05-09T04:55:36.117Z,100.00
2024-05-09T04:58:03.046Z,100.00
2024-05-09T05:00:35.959Z,100.00
2024-05-09T05:03:08.446Z,100.00
2024-05-09T05:05:40.360Z,100.00
2024-05-09T05:08:15.034Z,100.00
2024-05-09T05:10:43.053Z,100.00
2024-05-09T05:13:20.051Z,100.00
2024-05-09T05:15:55.628Z,100.00
2024-05-09T05:18:23.778Z,100.00
2024-05-09T05:20:51.121Z,100.00
2024-05-09T05:23:20.440Z,100.00
2024-05-09T05:25:49.068Z,100.00
2024-05-09T05:28:16.845Z,100.00
2024-05-09T05:30:43.781Z,100.00
2024-05-09T05:35:39.318Z,99.80
2024-05-09T05:38:10.280Z,99.70
2024-05-09T05:40:38.845Z,100.00
2024-05-09T05:43:11.352Z,100.00
2024-05-09T05:45:39.210Z,100.00
2024-05-09T05:48:08.041Z,100.00
2024-05-09T05:50:37.622Z,100.00
2024-05-09T05:53:07.522Z,99.70
2024-05-09T05:55:35.466Z,100.00
2024-05-09T05:58:02.781Z,100.00
2024-05-09T06:00:37.423Z,100.00
2024-05-09T06:03:07.427Z,99.20
2024-05-09T06:05:35.755Z,99.80
2024-05-09T06:08:02.857Z,99.20
2024-05-09T06:10:37.464Z,99.10
2024-05-09T06:13:07.319Z,99.40
2024-05-09T06:15:34.348Z,99.10
2024-05-09T06:18:01.723Z,98.80
2024-05-09T06:20:35.666Z,97.70
2024-05-09T06:23:05.879Z,97.70
2024-05-09T06:25:33.086Z,97.80
2024-05-09T06:28:01.096Z,98.20
2024-05-09T06:30:35.233Z,97.60
2024-05-09T06:33:07.603Z,97.30
2024-05-09T06:35:34.974Z,97.30
2024-05-09T06:38:02.250Z,97.50
2024-05-09T06:40:37.053Z,97.70
2024-05-09T06:43:11.220Z,97.00
2024-05-09T06:45:39.876Z,96.40
2024-05-09T06:48:08.885Z,95.20
2024-05-09T06:50:38.267Z,95.70
2024-05-09T06:53:07.197Z,95.40
2024-05-09T06:55:34.354Z,95.40
2024-05-09T06:58:01.261Z,95.30
2024-05-09T07:00:35.682Z,94.70
2024-05-09T07:03:16.545Z,94.00
2024-05-09T07:05:46.772Z,93.80
2024-05-09T07:08:14.842Z,92.80
2024-05-09T07:10:42.025Z,92.60
2024-05-09T07:13:13.280Z,92.10
2024-05-09T07:15:41.207Z,91.50
2024-05-09T07:18:17.298Z,90.90
2024-05-09T07:20:46.013Z,90.30
2024-05-09T07:23:13.428Z,90.30
2024-05-09T07:25:41.438Z,89.70
2024-05-09T07:28:19.356Z,89.00
2024-05-09T07:30:46.542Z,88.30
2024-05-09T07:33:17.982Z,88.40
2024-05-09T07:35:45.257Z,86.90
2024-05-09T07:38:12.290Z,87.30
2024-05-09T07:40:40.827Z,87.50
2024-05-09T07:43:11.639Z,86.70
2024-05-09T07:45:48.613Z,86.50
2024-05-09T07:53:39.331Z,83.90
2024-05-09T07:56:10.385Z,83.20
2024-05-09T07:58:38.963Z,82.10
2024-05-09T08:01:06.227Z,80.00
2024-05-09T08:03:34.341Z,79.20
2024-05-09T08:06:01.546Z,78.60
2024-05-09T08:08:28.565Z,77.90
2024-05-09T08:10:55.545Z,76.50
2024-05-09T08:13:22.770Z,76.00
2024-05-09T08:15:49.916Z,74.50
2024-05-09T08:18:17.884Z,73.90
2024-05-09T08:20:48.685Z,74.00
2024-05-09T08:23:15.862Z,71.40
2024-05-09T08:25:42.834Z,70.40
2024-05-09T08:28:10.794Z,71.50
2024-05-09T08:30:38.497Z,69.00
2024-05-09T08:33:06.964Z,70.00
2024-05-09T08:35:35.161Z,69.40
2024-05-09T08:38:03.856Z,69.60
2024-05-09T08:40:36.210Z,68.70
2024-05-09T08:43:09.241Z,67.70
2024-05-09T08:45:38.842Z,66.40
2024-05-09T08:48:08.842Z,67.00
2024-05-09T08:50:40.370Z,65.20
2024-05-09T08:53:08.583Z,64.70
2024-05-09T08:55:40.309Z,63.50
2024-05-09T08:58:13.983Z,63.40
2024-05-09T09:00:43.166Z,63.20
2024-05-09T09:03:15.050Z,61.60
2024-05-09T09:05:51.325Z,61.60
2024-05-09T09:08:18.601Z,62.20
2024-05-09T09:10:47.576Z,61.00
2024-05-09T09:13:14.783Z,62.30
2024-05-09T09:15:48.613Z,61.20
2024-05-09T09:18:16.534Z,60.30
2024-05-09T09:20:44.395Z,59.10
2024-05-09T09:23:11.344Z,59.10
2024-05-09T09:25:41.169Z,57.80
2024-05-09T09:28:08.356Z,57.50
2024-05-09T09:30:42.275Z,58.60
2024-05-09T09:33:10.328Z,57.70
2024-05-09T09:35:39.966Z,57.10
2024-05-09T09:38:08.029Z,56.60
2024-05-09T09:40:40.666Z,56.60
2024-05-09T09:43:21.587Z,53.80
2024-05-09T09:45:51.536Z,55.70
2024-05-09T09:48:20.519Z,55.20
2024-05-09T09:50:48.438Z,53.00
2024-05-09T09:53:16.675Z,52.60
2024-05-09T09:55:44.108Z,54.10
2024-05-09T09:58:13.920Z,56.20
2024-05-09T10:00:42.167Z,56.10
2024-05-09T10:03:09.454Z,55.70
2024-05-09T10:05:37.171Z,56.10
2024-05-09T10:08:07.292Z,54.00
2024-05-09T10:10:35.661Z,51.40
2024-05-09T10:13:07.277Z,51.20
2024-05-09T10:15:45.808Z,51.10
2024-05-09T10:18:13.458Z,51.50
2024-05-09T10:20:44.515Z,52.50
2024-05-09T10:23:30.904Z,50.50
2024-05-09T10:26:03.486Z,50.90
2024-05-09T10:28:35.705Z,51.00
2024-05-09T10:31:14.769Z,52.90
2024-05-09T10:33:49.541Z,54.40
2024-05-09T10:36:25.343Z,55.30
2024-05-09T10:38:54.011Z,52.30
2024-05-09T10:41:22.614Z,53.10
2024-05-09T10:43:50.767Z,54.50
2024-05-09T10:46:20.646Z,54.90
2024-05-09T10:48:49.465Z,52.30
2024-05-09T10:51:19.822Z,50.90
2024-05-09T10:53:48.553Z,52.30
2024-05-09T10:56:16.138Z,52.70
2024-05-09T10:58:43.232Z,52.80
2024-05-09T11:01:10.881Z,50.80
2024-05-09T11:03:39.163Z,50.70
2024-05-09T11:06:07.060Z,50.80
2024-05-09T11:08:35.128Z,48.70
2024-05-09T11:11:06.757Z,48.70
2024-05-09T11:13:36.129Z,47.20
2024-05-09T11:16:04.405Z,46.20
2024-05-09T11:18:36.191Z,48.60
2024-05-09T11:21:12.859Z,48.00
2024-05-09T11:23:40.236Z,48.00
2024-05-09T11:26:07.280Z,47.40
2024-05-09T11:28:35.875Z,48.00
2024-05-09T11:31:10.716Z,48.70
2024-05-09T11:33:38.932Z,48.40
2024-05-09T11:36:07.204Z,47.00
2024-05-09T11:38:34.181Z,48.80
2024-05-09T11:41:02.371Z,47.80
2024-05-09T11:43:29.323Z,47.70
2024-05-09T11:45:57.878Z,47.20
2024-05-09T11:48:26.187Z,47.50
2024-05-09T11:50:55.124Z,48.00
2024-05-09T11:53:22.273Z,46.00
2024-05-09T11:55:49.170Z,46.80
2024-05-09T11:58:18.042Z,46.30
2024-05-09T12:00:46.271Z,48.10
2024-05-09T12:03:13.569Z,46.70
2024-05-09T12:05:40.682Z,47.70
2024-05-09T12:08:07.952Z,45.50
2024-05-09T12:10:36.404Z,45.90
2024-05-09T12:13:05.996Z,47.20
2024-05-09T12:15:36.870Z,47.20
2024-05-09T12:18:05.441Z,45.10
2024-05-09T12:20:37.662Z,46.60
2024-05-09T12:23:08.292Z,46.40
2024-05-09T12:25:36.856Z,46.20
2024-05-09T12:28:04.136Z,46.90
2024-05-09T12:30:36.831Z,46.90
2024-05-09T12:33:15.887Z,45.20
2024-05-09T12:35:45.337Z,46.00
2024-05-09T12:38:14.332Z,45.40
2024-05-09T12:40:41.623Z,44.30
2024-05-09T12:43:09.986Z,45.10
2024-05-09T12:45:38.281Z,43.50
2024-05-09T12:48:08.370Z,42.30
2024-05-09T12:50:36.333Z,43.30
2024-05-09T12:53:04.464Z,42.70
2024-05-09T12:55:40.558Z,43.00
2024-05-09T12:58:16.046Z,44.10
2024-05-09T13:00:43.736Z,43.70
2024-05-09T13:03:10.889Z,43.00
2024-05-09T13:05:37.891Z,41.70
2024-05-09T13:08:05.256Z,41.90
2024-05-09T13:10:33.439Z,41.70
2024-05-09T13:13:01.965Z,41.60
2024-05-09T13:15:31.164Z,42.70
2024-05-09T13:18:02.003Z,40.70
2024-05-09T13:20:34.298Z,43.60
2024-05-09T13:23:04.684Z,43.00
2024-05-09T13:25:32.182Z,41.20
2024-05-09T13:27:59.168Z,41.80
2024-05-09T13:30:34.536Z,41.30
2024-05-09T13:33:07.141Z,43.50
2024-05-09T13:35:35.309Z,46.30
2024-05-09T13:38:03.331Z,44.20
2024-05-09T13:40:34.396Z,44.70
2024-05-09T13:43:04.560Z,46.60
2024-05-09T13:45:31.984Z,45.60
2024-05-09T13:47:59.256Z,44.20
2024-05-09T13:50:33.374Z,46.30
2024-05-09T13:53:03.616Z,45.40
2024-05-09T13:55:30.613Z,46.30
2024-05-09T13:57:57.559Z,45.10
2024-05-09T14:02:54.423Z,45.50
2024-05-09T14:05:21.594Z,44.20
2024-05-09T14:07:48.799Z,43.60
2024-05-09T14:10:22.983Z,43.30
2024-05-09T14:12:55.444Z,44.60
2024-05-09T14:15:22.418Z,42.30
2024-05-09T14:17:49.464Z,41.50
2024-05-09T14:20:27.230Z,43.50
2024-05-09T14:22:57.674Z,41.90
2024-05-09T14:25:26.467Z,41.00
2024-05-09T14:27:54.033Z,40.70
2024-05-09T14:30:30.279Z,42.10
2024-05-09T14:33:03.106Z,42.90
2024-05-09T14:35:30.074Z,45.20
2024-05-09T14:37:57.063Z,44.30
2024-05-09T14:42:53.728Z,42.70
2024-05-09T14:45:20.733Z,42.20
2024-05-09T14:47:47.660Z,42.50
2024-05-09T14:50:23.665Z,42.70
2024-05-09T14:52:55.129Z,42.50
2024-05-09T14:55:22.017Z,43.20
2024-05-09T14:57:49.142Z,42.20
2024-05-09T15:00:24.794Z,42.00
2024-05-09T15:02:55.475Z,41.80
2024-05-09T15:05:22.477Z,41.80
2024-05-09T15:07:49.480Z,43.40
2024-05-09T15:10:23.867Z,43.40
2024-05-09T15:12:58.437Z,43.30
2024-05-09T15:15:25.368Z,44.60
2024-05-09T15:17:52.581Z,44.20
2024-05-09T15:20:27.654Z,44.20
2024-05-09T15:23:01.187Z,43.70
2024-05-09T15:25:28.141Z,43.70
2024-05-09T15:27:55.357Z,42.30
2024-05-09T15:32:52.376Z,42.90
2024-05-09T15:35:19.947Z,42.00
2024-05-09T15:37:48.393Z,41.70
2024-05-09T15:40:25.968Z,41.90
2024-05-09T15:43:02.128Z,43.10
2024-05-09T15:45:29.334Z,43.10
2024-05-09T15:47:57.247Z,42.90
2024-05-09T15:50:35.384Z,43.60
2024-05-09T15:53:06.839Z,43.20
2024-05-09T15:55:34.851Z,43.10
2024-05-09T15:58:03.310Z,43.90
2024-05-09T16:00:37.662Z,43.50
2024-05-09T16:03:08.817Z,43.20
2024-05-09T16:05:36.769Z,44.30
2024-05-09T16:08:04.596Z,43.70
2024-05-09T16:10:33.367Z,43.50
2024-05-09T16:13:02.520Z,43.20
2024-05-09T16:15:30.404Z,43.20
2024-05-09T16:17:57.664Z,42.90
2024-05-09T16:20:34.331Z,43.90
2024-05-09T16:23:07.427Z,43.50
2024-05-09T16:25:34.508Z,44.40
2024-05-09T16:28:02.010Z,43.90
2024-05-09T16:30:34.724Z,43.90
2024-05-09T16:33:04.653Z,43.90
2024-05-09T16:35:32.639Z,44.50
2024-05-09T16:38:02.191Z,45.90
2024-05-09T16:40:36.861Z,44.60
2024-05-09T16:43:07.594Z,45.30
2024-05-09T16:45:35.090Z,45.10
2024-05-09T16:48:02.866Z,45.70
2024-05-09T16:50:34.059Z,46.20
2024-05-09T16:53:03.419Z,46.00
2024-05-09T16:55:30.731Z,46.90
2024-05-09T16:57:58.441Z,47.40
2024-05-09T17:00:35.625Z,48.10
2024-05-09T17:03:09.465Z,49.20
2024-05-09T17:05:37.118Z,48.60
2024-05-09T17:08:04.676Z,49.20
2024-05-09T17:10:34.092Z,48.90
2024-05-09T17:13:04.035Z,49.50
2024-05-09T17:15:32.461Z,49.80
2024-05-09T17:17:59.833Z,50.40
2024-05-09T17:20:32.965Z,50.40
2024-05-09T17:23:03.362Z,50.40
2024-05-09T17:25:30.292Z,50.60
2024-05-09T17:27:59.517Z,50.00
2024-05-09T17:30:32.478Z,51.00
2024-05-09T17:33:07.715Z,50.80
2024-05-09T17:35:36.374Z,55.40
2024-05-09T17:38:05.088Z,55.00
2024-05-09T17:40:35.780Z,55.40
2024-05-09T17:43:05.457Z,54.70
2024-05-09T17:45:33.307Z,55.10
2024-05-09T17:48:01.493Z,54.40
2024-05-09T17:50:35.199Z,55.80
2024-05-09T17:53:05.417Z,56.80
2024-05-09T17:55:32.670Z,57.40
2024-05-09T17:57:59.898Z,57.00
2024-05-09T18:02:56.582Z,57.70
2024-05-09T18:05:23.865Z,57.00
2024-05-09T18:07:51.019Z,57.60
2024-05-09T18:10:25.406Z,57.90
2024-05-09T18:12:56.930Z,58.20
2024-05-09T18:15:23.850Z,58.10
2024-05-09T18:17:52.164Z,57.90
2024-05-09T18:20:28.710Z,56.40
2024-05-09T18:23:05.535Z,57.00
2024-05-09T18:25:32.426Z,58.10
2024-05-09T18:27:59.374Z,58.50
2024-05-09T18:30:32.408Z,59.80
2024-05-09T18:33:02.515Z,60.20
2024-05-09T18:35:29.696Z,60.20
2024-05-09T18:37:56.729Z,59.30
2024-05-09T18:42:53.519Z,60.10
2024-05-09T18:45:20.422Z,59.50
2024-05-09T18:47:47.452Z,59.40
2024-05-09T18:50:20.901Z,60.10
2024-05-09T18:52:55.629Z,60.40
2024-05-09T18:55:22.523Z,59.60
2024-05-09T18:57:49.526Z,60.70
2024-05-09T19:00:27.051Z,61.70
2024-05-09T19:03:01.178Z,61.70
2024-05-09T19:05:28.408Z,61.60
2024-05-09T19:07:55.508Z,61.90
2024-05-09T19:10:26.046Z,62.30
2024-05-09T19:12:55.922Z,62.30
2024-05-09T19:15:22.868Z,63.00
2024-05-09T19:17:49.911Z,62.60
2024-05-09T19:20:25.165Z,63.10
2024-05-09T19:22:58.421Z,64.40
2024-05-09T19:25:25.339Z,65.10
2024-05-09T19:27:52.224Z,65.10
2024-05-09T19:30:29.302Z,64.50
2024-05-09T19:33:03.996Z,65.20
2024-05-09T19:35:30.958Z,65.30
2024-05-09T19:37:58.065Z,66.10
2024-05-09T19:40:30.937Z,65.70
2024-05-09T19:43:00.489Z,66.80
2024-05-09T19:45:27.417Z,66.70
2024-05-09T19:47:54.640Z,67.10
2024-05-09T19:50:30.243Z,66.40
2024-05-09T19:53:03.412Z,67.10
2024-05-09T19:55:30.269Z,67.40
2024-05-09T19:57:57.820Z,67.20
2024-05-09T20:00:32.556Z,67.70
2024-05-09T20:03:03.070Z,67.00
2024-05-09T20:05:31.200Z,67.40
2024-05-09T20:07:58.485Z,68.10
2024-05-09T20:10:31.422Z,67.70
2024-05-09T20:13:00.549Z,67.30
2024-05-09T20:15:27.545Z,67.30
2024-05-09T20:17:57.431Z,67.70
2024-05-09T20:20:33.297Z,67.90
2024-05-09T20:23:06.289Z,67.60
2024-05-09T20:25:33.354Z,67.90
2024-05-09T20:28:00.491Z,67.90
2024-05-09T20:30:32.196Z,68.40
2024-05-09T20:33:03.375Z,68.80
2024-05-09T20:35:32.723Z,69.30
2024-05-09T20:38:00.998Z,68.90
2024-05-09T20:40:32.881Z,68.40
2024-05-09T20:43:03.888Z,68.50
2024-05-09T20:45:30.965Z,68.60
2024-05-09T20:47:58.255Z,69.20
2024-05-09T20:50:35.621Z,69.50
2024-05-09T20:53:11.850Z,69.80
2024-05-09T20:55:39.986Z,69.80
2024-05-09T20:58:07.011Z,69.70
2024-05-09T21:00:39.554Z,70.20
2024-05-09T21:03:10.487Z,70.40
2024-05-09T21:05:38.032Z,70.60
2024-05-09T21:08:05.405Z,71.20
2024-05-09T21:10:33.956Z,71.20
2024-05-09T21:13:03.125Z,71.10
2024-05-09T21:15:31.108Z,71.50
2024-05-09T21:17:58.630Z,71.30
2024-05-09T21:20:31.143Z,71.40
2024-05-09T21:22:59.841Z,71.60
2024-05-09T21:25:26.883Z,71.50
2024-05-09T21:27:53.981Z,71.70
2024-05-09T21:30:31.848Z,71.80
2024-05-09T21:33:09.842Z,71.70
2024-05-09T21:35:38.334Z,71.30
2024-05-09T21:38:05.968Z,71.50
2024-05-09T21:40:35.675Z,71.50
2024-05-09T21:43:04.833Z,71.40
2024-05-09T21:45:32.417Z,71.40
2024-05-09T21:47:59.826Z,71.60
2024-05-09T21:50:35.832Z,71.80
2024-05-09T21:53:07.384Z,72.00
2024-05-09T21:55:35.059Z,72.00
2024-05-09T21:58:02.740Z,71.90
2024-05-09T22:00:36.078Z,72.40
2024-05-09T22:03:06.043Z,72.60
2024-05-09T22:05:33.382Z,72.40
2024-05-09T22:08:00.513Z,72.40
2024-05-09T22:10:33.721Z,72.40
2024-05-09T22:13:04.320Z,72.50
2024-05-09T22:15:37.681Z,72.60
2024-05-09T22:18:06.483Z,72.60
2024-05-09T22:20:37.631Z,72.70
2024-05-09T22:23:07.227Z,73.00
2024-05-09T22:25:34.484Z,73.40
2024-05-09T22:28:02.532Z,73.60
2024-05-09T22:32:59.640Z,73.90
2024-05-09T22:35:26.596Z,74.00
2024-05-09T22:37:53.564Z,74.00
2024-05-09T22:40:29.144Z,74.00
2024-05-09T22:43:05.658Z,74.10
2024-05-09T22:45:32.863Z,74.40
2024-05-09T22:48:00.030Z,74.60
2024-05-09T22:50:32.593Z,74.60
2024-05-09T22:53:00.773Z,74.50
2024-05-09T22:55:27.800Z,74.60
2024-05-09T22:57:54.903Z,74.80
2024-05-09T23:00:30.808Z,74.90
2024-05-09T23:03:00.843Z,74.80
2024-05-09T23:05:28.337Z,75.30
2024-05-09T23:07:55.351Z,76.20
2024-05-09T23:10:30.832Z,76.90
2024-05-09T23:13:02.359Z,77.10
2024-05-09T23:15:29.485Z,77.40
2024-05-09T23:17:57.339Z,77.20
2024-05-09T23:22:54.297Z,77.70
2024-05-09T23:25:21.238Z,77.90
2024-05-09T23:27:48.248Z,77.80
2024-05-09T23:30:25.553Z,78.20
2024-05-09T23:32:59.581Z,78.70
2024-05-09T23:35:26.681Z,78.30
2024-05-09T23:37:53.633Z,78.30
2024-05-09T23:40:23.303Z,78.20
2024-05-09T23:42:51.029Z,78.10
2024-05-09T23:45:17.941Z,78.10
2024-05-09T23:47:45.029Z,78.10
2024-05-09T23:50:16.983Z,78.10
2024-05-09T23:52:50.607Z,78.00
2024-05-09T23:55:17.773Z,77.60
2024-05-09T23:57:45.048Z,78.00
